Time;durP1;ratioP1;P1;durP2;ratioP2;P2;SDS_P1;SDS_P2;PMS_P1;PMS_P2;Temp;Humidity;BMP_temperature;BMP_pressure;BME280_temperature;BME280_humidity;BME280_pressure;Samples;Min_cycle;Max_cycle;Signal;HPM_P1;HPM_P2
2022/04/18 00:02:07;;;;;;;16.83;10.82;;;6.80;97.00;;;;;;4856911;29;20053;-81
2022/04/18 00:04:33;;;;;;;16.88;10.23;;;6.70;97.60;;;;;;4857386;29;20052;-82
2022/04/18 00:07:01;;;;;;;19.08;10.30;;;6.70;98.00;;;;;;4857076;29;20076;-82
2022/04/18 00:09:29;;;;;;;18.92;11.10;;;6.70;98.40;;;;;;4857840;29;20059;-82
2022/04/18 00:11:55;;;;;;;16.95;9.93;;;7.10;98.90;;;;;;4857331;29;20053;-82
2022/04/18 00:14:21;;;;;;;16.27;10.52;;;7.20;99.60;;;;;;4856874;29;20057;-82
2022/04/18 00:16:47;;;;;;;17.58;11.13;;;6.80;99.90;;;;;;4857185;29;20049;-82
2022/04/18 00:19:12;;;;;;;18.02;10.98;;;6.70;99.90;;;;;;4857808;29;20052;-82
2022/04/18 00:21:38;;;;;;;17.90;10.45;;;6.70;99.90;;;;;;4857165;29;20474;-83
2022/04/18 00:24:04;;;;;;;18.27;10.35;;;7.50;99.90;;;;;;4857345;29;20497;-82
2022/04/18 00:26:30;;;;;;;19.27;10.55;;;6.60;99.90;;;;;;4873430;29;20045;-82
2022/04/18 00:28:55;;;;;;;16.02;9.98;;;6.60;99.90;;;;;;4855738;29;20043;-82
2022/04/18 00:31:21;;;;;;;18.90;10.48;;;6.60;99.90;;;;;;4858490;29;20053;-82
2022/04/18 00:33:47;;;;;;;17.35;11.02;;;7.10;99.90;;;;;;4857000;29;20045;-82
2022/04/18 00:36:12;;;;;;;17.75;11.55;;;6.40;99.90;;;;;;4857421;29;20093;-82
2022/04/18 00:38:38;;;;;;;18.73;11.13;;;6.40;99.90;;;;;;4873115;29;20116;-82
2022/04/18 00:41:05;;;;;;;18.50;11.27;;;6.50;99.90;;;;;;4872077;29;20878;-81
2022/04/18 00:43:40;;;;;;;22.48;11.00;;;6.40;99.90;;;;;;4857153;29;20084;-81
2022/04/18 00:46:07;;;;;;;18.55;11.38;;;6.50;99.90;;;;;;4856291;29;20063;-82
2022/04/18 00:48:33;;;;;;;20.42;11.40;;;7.20;99.90;;;;;;4857916;29;20059;-82
2022/04/18 00:50:59;;;;;;;20.33;12.35;;;6.40;99.90;;;;;;4856195;29;20048;-82
2022/04/18 00:53:26;;;;;;;19.10;10.93;;;6.40;99.90;;;;;;4858426;29;20045;-82
2022/04/18 00:55:52;;;;;;;23.05;11.80;;;6.90;99.90;;;;;;4875430;29;20043;-82
2022/04/18 00:58:18;;;;;;;19.25;11.50;;;6.90;99.90;;;;;;4859974;29;20052;-82
2022/04/18 01:00:44;;;;;;;20.52;12.02;;;7.00;99.90;;;;;;4860196;29;20077;-83
2022/04/18 01:03:10;;;;;;;22.20;11.43;;;6.20;99.90;;;;;;4859983;29;20052;-82
2022/04/18 01:05:36;;;;;;;19.05;11.80;;;7.00;99.90;;;;;;4876187;29;20514;-82
2022/04/18 01:08:01;;;;;;;17.42;11.88;;;6.60;99.90;;;;;;4860315;29;20049;-82
2022/04/18 01:10:27;;;;;;;16.48;11.40;;;6.90;99.90;;;;;;4860133;29;20045;-82
2022/04/18 01:12:53;;;;;;;21.50;12.00;;;7.00;99.90;;;;;;4860091;29;20061;-82
2022/04/18 01:15:18;;;;;;;20.65;11.75;;;6.20;99.90;;;;;;4859624;29;20465;-82
2022/04/18 01:17:44;;;;;;;19.00;11.68;;;6.20;99.90;;;;;;4860174;29;20049;-82
2022/04/18 01:20:10;;;;;;;22.70;11.68;;;6.20;99.90;;;;;;4859906;29;20067;-83
2022/04/18 01:22:37;;;;;;;18.70;11.65;;;6.20;99.90;;;;;;4860939;29;20079;-83
2022/04/18 01:30:31;;;;;;;20.05;10.98;;;6.30;99.90;;;;;;4859352;29;20524;-82
2022/04/18 01:32:57;;;;;;;20.58;11.85;;;6.10;99.90;;;;;;4859510;29;20049;-83
2022/04/18 01:35:23;;;;;;;22.80;12.32;;;6.10;99.90;;;;;;4860585;29;20087;-83
2022/04/18 01:37:48;;;;;;;21.02;12.80;;;6.10;99.90;;;;;;4859856;29;20504;-83
2022/04/18 01:40:14;;;;;;;26.58;12.63;;;6.90;99.90;;;;;;4874695;29;20097;-83
2022/04/18 01:42:40;;;;;;;24.42;13.25;;;6.70;99.90;;;;;;4860098;29;20052;-83
2022/04/18 01:45:06;;;;;;;21.13;12.82;;;6.10;99.90;;;;;;4874548;29;20108;-83
2022/04/18 01:47:32;;;;;;;23.65;12.43;;;6.10;99.90;;;;;;4859617;29;20041;-83
2022/04/18 01:49:57;;;;;;;21.15;12.65;;;6.00;99.90;;;;;;4859028;29;20060;-84
2022/04/18 01:52:23;;;;;;;24.85;12.48;;;6.70;99.90;;;;;;4860005;29;20045;-83
2022/04/18 01:54:49;;;;;;;28.73;13.82;;;6.00;99.90;;;;;;4859183;29;20057;-84
2022/04/18 01:57:14;;;;;;;27.98;13.00;;;6.00;99.90;;;;;;4875375;29;20056;-83
2022/04/18 01:59:42;;;;;;;21.88;12.73;;;5.90;99.90;;;;;;4858800;29;20072;-83
2022/04/18 02:02:08;;;;;;;25.42;12.73;;;5.90;99.90;;;;;;4859091;29;20053;-83
2022/04/18 02:04:34;;;;;;;21.65;13.07;;;5.90;99.90;;;;;;4859283;29;20553;-83
2022/04/18 02:07:00;;;;;;;25.13;13.98;;;5.90;99.90;;;;;;4858640;29;20187;-83
2022/04/18 02:09:26;;;;;;;22.45;13.43;;;5.80;99.90;;;;;;4859691;29;20049;-83
2022/04/18 02:11:51;;;;;;;24.35;13.93;;;5.80;99.90;;;;;;4859676;29;20049;-83
2022/04/18 02:14:17;;;;;;;23.13;13.38;;;5.70;99.90;;;;;;4857771;29;20128;-83
2022/04/18 02:16:43;;;;;;;22.50;13.70;;;5.70;99.90;;;;;;4859882;29;20160;-83
2022/04/18 02:19:09;;;;;;;23.35;14.00;;;6.00;99.90;;;;;;4858940;29;20533;-83
2022/04/18 02:21:34;;;;;;;21.75;12.73;;;5.50;99.90;;;;;;4859188;29;20410;-83
2022/04/18 02:24:00;;;;;;;21.20;12.73;;;5.60;99.90;;;;;;4859064;29;20485;-82
2022/04/18 02:26:26;;;;;;;25.00;12.98;;;5.40;99.90;;;;;;4859469;29;20041;-84
2022/04/18 02:28:51;;;;;;;22.48;12.60;;;5.30;99.90;;;;;;4857670;29;20045;-83
2022/04/18 02:31:17;;;;;;;19.88;12.82;;;5.30;99.90;;;;;;4843529;29;20143;-84
2022/04/18 02:33:42;;;;;;;23.42;12.75;;;5.30;99.90;;;;;;4859593;29;20152;-83
2022/04/18 02:36:08;;;;;;;25.95;12.93;;;5.20;99.90;;;;;;4857998;29;20103;-83
2022/04/18 02:38:34;;;;;;;21.85;14.18;;;5.20;99.90;;;;;;4859155;29;20128;-82
2022/04/18 02:40:59;;;;;;;18.98;11.82;;;5.40;99.90;;;;;;4858528;29;20132;-83
2022/04/18 02:43:25;;;;;;;25.30;13.10;;;5.10;99.90;;;;;;4858502;29;20089;-82
2022/04/18 02:45:51;;;;;;;20.48;12.90;;;5.10;99.90;;;;;;4857893;29;20088;-83
2022/04/18 02:48:16;;;;;;;21.05;13.13;;;5.10;99.90;;;;;;4859466;29;20056;-83
2022/04/18 02:50:42;;;;;;;19.83;12.40;;;5.10;99.90;;;;;;4858167;29;20478;-83
2022/04/18 02:53:08;;;;;;;22.23;12.82;;;5.00;99.90;;;;;;4858318;29;20544;-83
2022/04/18 02:55:34;;;;;;;21.58;13.20;;;5.00;99.90;;;;;;4874325;29;20049;-83
2022/04/18 02:57:59;;;;;;;23.38;13.15;;;5.00;99.90;;;;;;4857819;29;20045;-83
2022/04/18 03:00:25;;;;;;;22.73;12.68;;;4.90;99.90;;;;;;4858198;29;20855;-83
2022/04/18 03:02:51;;;;;;;23.38;12.30;;;4.90;99.90;;;;;;4857272;29;20045;-83
2022/04/18 03:05:17;;;;;;;20.27;12.32;;;4.90;99.90;;;;;;4858593;29;20049;-83
2022/04/18 03:07:42;;;;;;;21.60;13.35;;;4.90;99.90;;;;;;4858933;29;20045;-83
2022/04/18 03:10:08;;;;;;;22.52;12.43;;;4.80;99.90;;;;;;4857090;29;20053;-83
2022/04/18 03:12:34;;;;;;;22.58;12.25;;;4.80;99.90;;;;;;4873974;29;20077;-83
2022/04/18 03:15:00;;;;;;;23.17;13.45;;;4.70;99.90;;;;;;4857182;29;20129;-82
2022/04/18 03:17:26;;;;;;;21.58;13.05;;;4.70;99.90;;;;;;4857749;29;20140;-82
2022/04/18 03:19:53;;;;;;;23.65;12.95;;;4.70;99.90;;;;;;4857901;29;20131;-83
2022/04/18 03:22:19;;;;;;;19.90;12.57;;;4.70;99.90;;;;;;4858520;29;20049;-82
2022/04/18 03:24:45;;;;;;;19.27;11.90;;;4.60;99.90;;;;;;4857050;29;20873;-82
2022/04/18 03:27:11;;;;;;;20.40;12.20;;;4.70;99.90;;;;;;4858549;29;20056;-83
2022/04/18 03:29:37;;;;;;;23.30;12.73;;;5.50;99.90;;;;;;4857438;29;20409;-82
2022/04/18 03:32:03;;;;;;;19.63;12.70;;;4.70;99.90;;;;;;4856910;29;20041;-83
2022/04/18 03:34:29;;;;;;;18.52;12.30;;;4.70;99.90;;;;;;4858221;29;20053;-82
2022/04/18 03:39:50;;;;;;;22.58;12.05;;;4.60;99.90;;;;;;4857314;29;20060;-83
2022/04/18 03:42:18;;;;;;;20.15;12.80;;;4.60;99.90;;;;;;4858121;29;20049;-83
2022/04/18 03:44:46;;;;;;;23.23;13.02;;;4.50;99.90;;;;;;4857435;29;20063;-82
2022/04/18 03:47:14;;;;;;;20.17;11.95;;;4.50;99.90;;;;;;4857593;29;20060;-83
2022/04/18 03:49:40;;;;;;;25.13;12.70;;;4.50;99.90;;;;;;4857729;29;20428;-82
2022/04/18 03:52:07;;;;;;;22.95;11.88;;;4.40;99.90;;;;;;4856992;29;20444;-82
2022/04/18 03:54:35;;;;;;;19.50;11.52;;;4.40;99.90;;;;;;4857952;29;20057;-83
2022/04/18 03:57:02;;;;;;;22.60;12.20;;;4.30;99.90;;;;;;4857621;29;20045;-82
2022/04/18 03:59:28;;;;;;;26.98;12.38;;;5.00;99.90;;;;;;4856778;29;20045;-82
2022/04/18 04:01:54;;;;;;;25.13;11.70;;;4.30;99.90;;;;;;4857286;29;20049;-82
2022/04/18 04:04:19;;;;;;;19.58;11.93;;;4.30;99.90;;;;;;4873017;29;20053;-82
2022/04/18 04:06:45;;;;;;;19.67;12.30;;;4.20;99.90;;;;;;4856316;29;20045;-83
2022/04/18 04:09:11;;;;;;;21.77;11.27;;;4.20;99.90;;;;;;4857702;29;20064;-83
2022/04/18 04:11:37;;;;;;;21.45;11.95;;;4.20;99.90;;;;;;4858103;29;20053;-83
2022/04/18 04:14:03;;;;;;;20.45;12.77;;;4.20;99.90;;;;;;4855484;29;20528;-82
2022/04/18 04:16:29;;;;;;;22.23;12.50;;;4.20;99.90;;;;;;4858228;29;20049;-82
2022/04/18 04:18:54;;;;;;;21.48;12.48;;;4.10;99.90;;;;;;4856675;29;20498;-84
2022/04/18 04:21:20;;;;;;;20.83;11.43;;;4.20;99.90;;;;;;4857533;29;20056;-82
2022/04/18 04:23:46;;;;;;;22.05;12.25;;;4.20;99.90;;;;;;4857449;29;20483;-82
2022/04/18 04:26:12;;;;;;;21.85;11.77;;;4.10;99.90;;;;;;4857036;29;20461;-82
2022/04/18 04:28:38;;;;;;;23.45;12.32;;;4.80;99.90;;;;;;4874925;29;20120;-81
2022/04/18 04:31:03;;;;;;;21.58;12.35;;;4.10;99.90;;;;;;4859805;29;20045;-83
2022/04/18 04:33:30;;;;;;;19.90;11.82;;;4.20;99.90;;;;;;4861183;29;20057;-82
2022/04/18 04:35:58;;;;;;;20.15;11.77;;;4.20;99.90;;;;;;4875420;29;20053;-84
2022/04/18 04:38:25;;;;;;;19.95;11.63;;;4.20;99.90;;;;;;4876539;29;20127;-83
2022/04/18 04:40:51;;;;;;;20.25;12.38;;;4.20;99.90;;;;;;4860664;29;20105;-82
2022/04/18 04:43:17;;;;;;;18.88;11.73;;;4.20;99.90;;;;;;4875506;29;20045;-83
2022/04/18 04:45:42;;;;;;;20.67;11.65;;;4.20;99.90;;;;;;4860484;29;20071;-82
2022/04/18 04:48:08;;;;;;;19.20;11.95;;;4.20;99.90;;;;;;4875761;29;20409;-82
2022/04/18 04:50:34;;;;;;;17.42;10.60;;;4.20;99.90;;;;;;4860175;29;20441;-81
2022/04/18 04:53:00;;;;;;;17.40;11.45;;;5.10;99.90;;;;;;4860602;29;20064;-82
2022/04/18 04:55:27;;;;;;;15.68;10.48;;;4.30;99.90;;;;;;4859841;29;20054;-81
2022/04/18 04:57:53;;;;;;;20.40;10.75;;;4.40;99.90;;;;;;4860628;29;20048;-81
2022/04/18 05:00:19;;;;;;;17.27;10.95;;;4.40;99.90;;;;;;4859568;29;20101;-82
2022/04/18 05:02:45;;;;;;;19.38;11.15;;;4.50;99.90;;;;;;4875040;29;20060;-82
2022/04/18 05:05:11;;;;;;;18.60;10.18;;;4.50;99.90;;;;;;4860822;29;20131;-81
2022/04/18 05:07:37;;;;;;;17.15;10.70;;;4.60;99.90;;;;;;4860510;29;20124;-81
2022/04/18 05:10:03;;;;;;;18.55;10.48;;;4.70;99.90;;;;;;4859292;29;20402;-81
2022/04/18 05:12:31;;;;;;;18.48;10.93;;;4.70;99.90;;;;;;4860372;29;20064;-81
2022/04/18 05:15:02;;;;;;;15.85;10.40;;;5.00;99.90;;;;;;4859272;29;20145;-82
2022/04/18 05:17:28;;;;;;;18.17;10.38;;;4.70;99.90;;;;;;4859152;29;20053;-81
2022/04/18 05:19:54;;;;;;;17.63;10.57;;;4.80;99.90;;;;;;4860002;29;20573;-81
2022/04/18 05:22:19;;;;;;;16.40;10.60;;;4.80;99.90;;;;;;4860473;29;20041;-81
2022/04/18 05:24:45;;;;;;;16.05;10.57;;;4.90;99.90;;;;;;4858903;29;20063;-81
2022/04/18 05:27:15;;;;;;;17.95;10.43;;;5.00;99.90;;;;;;4844931;29;20049;-81
2022/04/18 05:29:42;;;;;;;17.17;10.80;;;5.10;99.90;;;;;;4859480;29;20064;-81
2022/04/18 05:32:08;;;;;;;20.95;11.38;;;5.10;99.90;;;;;;4859138;29;20218;-81
2022/04/18 05:34:34;;;;;;;15.82;10.00;;;5.20;99.90;;;;;;4859539;29;20562;-82
2022/04/18 05:37:00;;;;;;;16.40;10.52;;;5.30;99.90;;;;;;4859648;29;20497;-82
2022/04/18 05:39:27;;;;;;;18.08;10.70;;;6.20;99.90;;;;;;4858879;29;20509;-82
2022/04/18 05:41:53;;;;;;;19.15;11.68;;;5.80;99.90;;;;;;4874837;29;20081;-82
2022/04/18 05:44:18;;;;;;;17.48;10.50;;;6.10;99.90;;;;;;4859327;29;20099;-82
2022/04/18 05:46:44;;;;;;;18.10;11.07;;;5.70;99.90;;;;;;4859166;29;20144;-82
2022/04/18 05:49:09;;;;;;;22.10;10.80;;;5.80;99.90;;;;;;4859850;29;20056;-82
2022/04/18 05:51:37;;;;;;;16.02;9.93;;;6.80;99.90;;;;;;4859670;29;20472;-82
2022/04/18 05:54:03;;;;;;;15.32;9.90;;;6.20;99.90;;;;;;4859476;29;20093;-82
2022/04/18 05:56:29;;;;;;;21.85;11.00;;;6.20;99.90;;;;;;4860596;29;20145;-82
2022/04/18 05:58:55;;;;;;;17.80;9.80;;;6.30;99.90;;;;;;4857655;29;20793;-82
2022/04/18 06:01:21;;;;;;;14.23;9.70;;;6.40;99.90;;;;;;4859866;29;20052;-82
2022/04/18 06:03:47;;;;;;;20.80;10.88;;;7.10;99.90;;;;;;4858469;29;20041;-82
2022/04/18 06:06:14;;;;;;;20.00;10.40;;;6.70;99.90;;;;;;4859402;29;20045;-81
2022/04/18 06:08:40;;;;;;;14.30;9.90;;;6.80;99.90;;;;;;4859801;29;20041;-81
2022/04/18 06:11:06;;;;;;;15.85;10.55;;;6.90;99.90;;;;;;4858347;29;20405;-82
2022/04/18 06:13:32;;;;;;;14.77;9.93;;;7.60;99.90;;;;;;4859053;29;20045;-82
2022/04/18 06:15:57;;;;;;;17.65;10.77;;;7.10;99.90;;;;;;4857496;29;20053;-82
2022/04/18 06:18:23;;;;;;;15.65;10.50;;;7.20;99.90;;;;;;4859669;29;20064;-82
2022/04/18 06:20:49;;;;;;;17.40;10.73;;;7.30;99.90;;;;;;4858184;29;20049;-82
2022/04/18 06:23:16;;;;;;;17.98;10.38;;;7.40;99.90;;;;;;4859163;29;20417;-81
2022/04/18 06:25:43;;;;;;;18.35;9.85;;;8.10;99.90;;;;;;4875065;29;20063;-81
2022/04/18 06:28:09;;;;;;;21.20;10.25;;;8.20;99.90;;;;;;4876333;29;20536;-83
2022/04/18 06:30:35;;;;;;;19.33;10.45;;;7.70;99.90;;;;;;4877035;29;20161;-82
2022/04/18 06:33:00;;;;;;;15.43;9.57;;;8.00;99.90;;;;;;4877450;29;20049;-83
2022/04/18 06:35:26;;;;;;;17.25;9.77;;;8.50;99.90;;;;;;4876762;29;20064;-83
2022/04/18 06:37:52;;;;;;;21.70;9.85;;;8.00;99.90;;;;;;4861675;29;20048;-83
2022/04/18 06:40:18;;;;;;;15.07;9.43;;;8.00;99.90;;;;;;4877192;29;20045;-83
2022/04/18 06:42:43;;;;;;;17.55;9.57;;;8.30;99.90;;;;;;4872450;29;20473;-83
2022/04/18 06:45:09;;;;;;;16.55;8.60;;;8.10;99.90;;;;;;4863943;29;20382;-84
2022/04/18 06:47:35;;;;;;;16.92;8.60;;;8.30;99.90;;;;;;4876788;29;20549;-85
2022/04/18 06:50:02;;;;;;;14.85;8.15;;;8.40;99.90;;;;;;4875762;29;20059;-84
2022/04/18 06:52:27;;;;;;;12.50;8.57;;;8.50;99.90;;;;;;4879892;29;20526;-84
2022/04/18 06:54:53;;;;;;;12.43;7.85;;;8.60;99.90;;;;;;4885832;29;20044;-84
2022/04/18 06:57:19;;;;;;;13.30;7.68;;;8.70;99.90;;;;;;4882970;29;20135;-84
2022/04/18 06:59:46;;;;;;;12.48;7.97;;;8.80;99.90;;;;;;4860179;29;20049;-83
2022/04/18 07:02:11;;;;;;;13.73;7.55;;;8.90;99.90;;;;;;4876242;29;20769;-83
2022/04/18 07:04:37;;;;;;;13.40;8.57;;;9.30;99.90;;;;;;4867378;29;20055;-83
2022/04/18 07:07:05;;;;;;;17.25;8.43;;;9.70;99.90;;;;;;4885552;29;20131;-84
2022/04/18 07:09:31;;;;;;;14.02;7.63;;;9.20;99.90;;;;;;4876085;29;20052;-84
2022/04/18 07:11:56;;;;;;;13.98;8.40;;;9.90;99.90;;;;;;4860832;29;20085;-84
2022/04/18 07:14:22;;;;;;;13.73;8.43;;;9.60;99.90;;;;;;4875866;29;20059;-84
2022/04/18 07:16:49;;;;;;;13.02;8.00;;;9.60;99.90;;;;;;4867573;29;20060;-84
2022/04/18 07:19:15;;;;;;;21.58;8.55;;;9.60;99.90;;;;;;4869704;29;20060;-87
2022/04/18 07:21:41;;;;;;;15.15;8.27;;;9.70;99.90;;;;;;4878375;29;20104;-88
2022/04/18 07:24:16;;;;;;;16.38;8.80;;;9.70;99.90;;;;;;4863421;29;20500;-90
2022/04/18 07:26:42;;;;;;;15.32;8.70;;;10.80;99.90;;;;;;4879375;29;20044;-89
2022/04/18 07:29:07;;;;;;;14.02;8.85;;;10.60;99.90;;;;;;4878681;29;20053;-88
2022/04/18 07:31:33;;;;;;;12.57;7.85;;;10.00;99.90;;;;;;4857983;29;20085;-89
2022/04/18 07:33:59;;;;;;;15.52;7.95;;;10.90;99.90;;;;;;4877358;29;20049;-87
2022/04/18 07:36:25;;;;;;;15.60;8.00;;;10.20;99.90;;;;;;4877693;29;20100;-87
2022/04/18 07:38:50;;;;;;;13.13;9.00;;;10.60;99.90;;;;;;4876260;29;20104;-88
2022/04/18 07:41:27;;;;;;;14.45;8.80;;;10.40;99.90;;;;;;4853687;29;20054;-88
2022/04/18 07:43:54;;;;;;;16.63;8.38;;;10.50;99.90;;;;;;4864580;29;20135;-89
2022/04/18 07:46:23;;;;;;;13.73;8.70;;;11.30;99.90;;;;;;4882887;29;20508;-88
2022/04/18 07:48:51;;;;;;;14.57;7.75;;;10.40;99.90;;;;;;4888172;29;20052;-87
2022/04/18 07:51:34;;;;;;;15.18;8.32;;;11.20;99.90;;;;;;4862273;29;20513;-88
2022/04/18 07:54:00;;;;;;;12.45;7.88;;;10.90;99.90;;;;;;4862915;29;20061;-88
2022/04/18 07:56:26;;;;;;;12.63;8.35;;;11.90;99.90;;;;;;4863076;29;20056;-88
2022/04/18 07:59:05;;;;;;;15.00;7.88;;;11.00;99.90;;;;;;4853532;29;20045;-90
2022/04/18 08:01:31;;;;;;;12.10;7.82;;;11.20;99.90;;;;;;4859985;29;20088;-89
2022/04/18 08:04:00;;;;;;;16.02;7.25;;;11.30;99.90;;;;;;4864690;29;20092;-87
2022/04/18 08:06:26;;;;;;;12.98;7.20;;;11.50;99.90;;;;;;4897541;29;20048;-88
2022/04/18 08:08:54;;;;;;;10.35;6.57;;;11.80;99.90;;;;;;4868084;29;20087;-88
2022/04/18 08:11:20;;;;;;;14.02;7.43;;;11.70;99.90;;;;;;4864999;29;20448;-88
2022/04/18 08:13:47;;;;;;;13.48;7.40;;;11.80;99.90;;;;;;4865079;29;20100;-87
2022/04/18 08:16:13;;;;;;;13.25;6.88;;;12.10;99.90;;;;;;4888674;29;20097;-90
2022/04/18 08:18:42;;;;;;;59.72;10.50;;;12.00;99.90;;;;;;4884985;29;20567;-88
2022/04/18 08:21:08;;;;;;;11.93;7.20;;;12.10;99.90;;;;;;4866140;29;20448;-88
2022/04/18 08:23:35;;;;;;;15.05;7.10;;;12.10;99.90;;;;;;4860176;29;20045;-87
2022/04/18 08:26:03;;;;;;;13.43;6.95;;;12.50;99.90;;;;;;4875589;29;20184;-88
2022/04/18 08:28:47;;;;;;;13.52;7.00;;;12.20;99.90;;;;;;4881913;29;20048;-88
2022/04/18 08:31:14;;;;;;;17.90;7.35;;;12.30;99.90;;;;;;4871373;29;20056;-88
2022/04/18 08:33:47;;;;;;;10.85;7.18;;;12.50;99.90;;;;;;4856510;29;20044;-88
2022/04/18 08:36:14;;;;;;;11.90;7.07;;;12.40;99.90;;;;;;4867544;29;20052;-88
2022/04/18 08:38:40;;;;;;;12.90;7.05;;;13.00;99.90;;;;;;4868828;29;20040;-89
2022/04/18 08:41:09;;;;;;;12.68;7.35;;;12.60;99.90;;;;;;4868369;29;20507;-88
2022/04/18 08:43:35;;;;;;;11.75;6.97;;;12.60;99.90;;;;;;4893668;29;20054;-89
2022/04/18 08:46:05;;;;;;;12.27;7.25;;;12.80;99.90;;;;;;4866492;29;20184;-89
2022/04/18 08:54:04;;;;;;;12.48;7.25;;;13.00;99.90;;;;;;4902303;29;20055;-90
2022/04/18 08:56:30;;;;;;;11.23;6.97;;;13.00;99.90;;;;;;4859241;29;20053;-88
2022/04/18 08:58:56;;;;;;;10.65;6.93;;;13.30;99.90;;;;;;4849314;29;20045;-89
2022/04/18 09:01:22;;;;;;;10.07;6.38;;;13.20;99.90;;;;;;4868191;29;20481;-90
2022/04/18 09:03:47;;;;;;;14.50;6.68;;;13.40;99.90;;;;;;4874575;29;20056;-89
2022/04/18 09:06:14;;;;;;;10.18;6.10;;;13.40;99.90;;;;;;4877865;29;20477;-89
2022/04/18 09:08:43;;;;;;;13.45;6.82;;;13.50;99.90;;;;;;4868846;29;20048;-91
2022/04/18 09:11:08;;;;;;;10.95;6.50;;;13.60;99.30;;;;;;4868293;29;20044;-89
2022/04/18 09:13:42;;;;;;;15.27;6.88;;;13.70;99.30;;;;;;4855380;29;20053;-91
2022/04/18 09:16:15;;;;;;;10.40;6.07;;;13.80;98.70;;;;;;4863426;29;20049;-90
2022/04/18 09:18:42;;;;;;;;;;;13.90;99.50;;;;;;4866088;29;20135;-88
2022/04/18 09:21:08;;;;;;;13.10;6.57;;;14.10;98.50;;;;;;4864628;29;19983;-90
2022/04/18 09:23:35;;;;;;;11.48;6.88;;;14.10;98.50;;;;;;4881114;29;20088;-89
2022/04/18 09:26:02;;;;;;;11.75;6.35;;;14.40;98.60;;;;;;4880487;29;20048;-90
2022/04/18 09:28:36;;;;;;;10.98;5.97;;;14.40;98.70;;;;;;4876844;29;20056;-90
2022/04/18 09:31:05;;;;;;;12.20;7.50;;;14.50;97.20;;;;;;4865794;29;20053;-91
2022/04/18 09:33:40;;;;;;;11.65;6.30;;;14.60;98.10;;;;;;4865790;29;20048;-92
2022/04/18 09:36:08;;;;;;;12.52;6.53;;;14.70;97.30;;;;;;4865775;29;20131;-90
2022/04/18 09:38:38;;;;;;;11.52;6.25;;;14.80;97.20;;;;;;4862003;29;20049;-91
2022/04/18 09:41:04;;;;;;;12.95;6.70;;;14.90;97.20;;;;;;4847005;29;20482;-90
2022/04/18 09:43:40;;;;;;;10.05;6.47;;;15.00;96.10;;;;;;4880414;29;20051;-90
2022/04/18 09:46:07;;;;;;;10.50;5.50;;;15.10;95.50;;;;;;4864961;29;20147;-89
2022/04/18 09:48:34;;;;;;;12.60;6.10;;;15.20;96.30;;;;;;4857507;29;20132;-89
2022/04/18 09:51:05;;;;;;;8.93;5.70;;;15.20;96.30;;;;;;4862835;29;20075;-90
2022/04/18 09:53:31;;;;;;;11.23;6.03;;;15.40;96.30;;;;;;4864583;29;20087;-89
2022/04/18 09:55:57;;;;;;;51.50;11.75;;;15.50;96.10;;;;;;4879889;29;20052;-88
2022/04/18 09:58:23;;;;;;;156.80;24.83;;;15.60;95.40;;;;;;4856399;29;20045;-90
2022/04/18 10:00:50;;;;;;;11.43;6.30;;;15.70;94.90;;;;;;4880421;29;20147;-91
2022/04/18 10:03:17;;;;;;;12.25;5.88;;;15.80;94.60;;;;;;4874663;29;20049;-92
2022/04/18 10:05:42;;;;;;;9.05;5.43;;;16.00;94.20;;;;;;4846641;29;20053;-92
2022/04/18 10:08:08;;;;;;;11.35;5.72;;;16.00;92.90;;;;;;4856597;29;20069;-92
2022/04/18 10:10:40;;;;;;;9.90;5.35;;;16.10;92.20;;;;;;4846340;29;20458;-92
2022/04/18 10:13:07;;;;;;;10.40;5.88;;;16.10;91.90;;;;;;4877756;29;20112;-91
2022/04/18 10:15:35;;;;;;;10.13;5.78;;;16.30;91.10;;;;;;4879926;29;20057;-94
2022/04/18 10:18:04;;;;;;;10.75;5.40;;;16.40;90.90;;;;;;4855045;29;20067;-84
2022/04/18 10:20:49;;;;;;;10.25;5.40;;;16.50;91.20;;;;;;4852880;29;20063;-85
2022/04/18 10:23:34;;;;;;;11.32;5.90;;;16.50;87.60;;;;;;4865233;29;20081;-84
2022/04/18 10:26:01;;;;;;;12.95;5.97;;;16.60;90.80;;;;;;4857701;29;20095;-84
2022/04/18 10:28:34;;;;;;;7.88;4.70;;;16.80;91.20;;;;;;4858754;29;20090;-85
2022/04/18 10:31:01;;;;;;;9.68;5.32;;;16.70;90.60;;;;;;4845223;29;20049;-87
2022/04/18 10:33:28;;;;;;;9.23;5.43;;;16.80;90.00;;;;;;4850943;29;20421;-83
2022/04/18 10:36:01;;;;;;;13.35;5.13;;;16.90;91.20;;;;;;4871649;29;20061;-85
2022/04/18 10:38:30;;;;;;;8.63;4.85;;;17.00;88.40;;;;;;4869607;29;20523;-90
2022/04/18 10:41:14;;;;;;;8.73;4.85;;;16.90;86.80;;;;;;4854346;29;20041;-93
2022/04/18 10:43:53;;;;;;;8.23;4.93;;;17.10;83.20;;;;;;4878824;29;20055;-88
2022/04/18 10:46:20;;;;;;;10.02;5.05;;;17.20;85.70;;;;;;4863762;29;20416;-86
2022/04/18 10:48:55;;;;;;;6.93;4.13;;;17.20;83.10;;;;;;4873796;29;20087;-85
2022/04/18 10:51:28;;;;;;;10.60;4.60;;;17.20;77.00;;;;;;4877611;29;20048;-84
2022/04/18 10:54:07;;;;;;;7.53;3.58;;;17.20;77.60;;;;;;4864044;29;20061;-85
2022/04/18 10:56:56;;;;;;;7.80;4.43;;;17.30;80.20;;;;;;4853983;29;20409;-85
2022/04/18 10:59:25;;;;;;;7.35;3.50;;;17.40;75.50;;;;;;4850525;29;20049;-84
2022/04/18 11:01:53;;;;;;;6.43;3.55;;;17.50;73.10;;;;;;4857685;29;20124;-81
2022/04/18 11:04:24;;;;;;;8.40;3.50;;;17.60;72.80;;;;;;4868833;29;20053;-82
2022/04/18 11:06:50;;;;;;;6.13;3.30;;;17.50;71.30;;;;;;4850834;29;20053;-86
2022/04/18 11:09:20;;;;;;;6.13;3.60;;;17.80;69.20;;;;;;4853114;29;20053;-87
2022/04/18 11:11:54;;;;;;;7.38;3.50;;;17.70;67.10;;;;;;4844336;29;20049;-88
2022/04/18 11:14:23;;;;;;;5.75;3.03;;;17.80;70.00;;;;;;4856707;29;20048;-90
2022/04/18 11:16:51;;;;;;;4.88;2.22;;;17.90;68.30;;;;;;4879157;29;20465;-90
2022/04/18 11:19:21;;;;;;;6.60;3.42;;;18.00;67.40;;;;;;4880182;29;20099;-90
2022/04/18 11:21:58;;;;;;;7.65;3.55;;;18.10;66.30;;;;;;4863992;29;20071;-89
2022/04/18 11:24:54;;;;;;;7.70;3.65;;;18.10;68.70;;;;;;4863876;29;20052;-89
2022/04/18 11:27:25;;;;;;;8.25;3.35;;;18.10;68.00;;;;;;4864189;29;20489;-88
2022/04/18 11:29:54;;;;;;;5.70;3.58;;;18.10;66.00;;;;;;4862981;29;20136;-90
2022/04/18 11:32:21;;;;;;;7.30;3.80;;;18.20;64.80;;;;;;4879769;29;20049;-90
2022/04/18 11:34:50;;;;;;;8.23;3.70;;;18.20;64.40;;;;;;4863536;29;20045;-90
2022/04/18 11:37:25;;;;;;;6.80;3.20;;;18.20;64.20;;;;;;4863248;29;20048;-90
2022/04/18 11:39:53;;;;;;;6.65;3.70;;;18.30;66.30;;;;;;4863436;29;20052;-89
2022/04/18 11:42:23;;;;;;;8.43;3.28;;;18.30;64.30;;;;;;4879799;29;20095;-91
2022/04/18 11:44:50;;;;;;;5.60;3.53;;;18.40;62.20;;;;;;4878876;29;20096;-90
2022/04/18 11:47:21;;;;;;;6.05;3.80;;;18.40;63.30;;;;;;4880447;29;20126;-92
2022/04/18 11:49:49;;;;;;;7.22;3.75;;;18.40;60.90;;;;;;4879808;29;20055;-91
2022/04/18 11:52:18;;;;;;;6.88;3.75;;;18.40;61.70;;;;;;4864378;29;20375;-92
2022/04/18 11:54:55;;;;;;;6.32;3.55;;;18.50;61.20;;;;;;4864406;29;20049;-91
2022/04/18 11:57:21;;;;;;;8.95;3.15;;;18.60;62.00;;;;;;4863716;29;20184;-90
2022/04/18 11:59:47;;;;;;;6.43;3.50;;;18.60;60.80;;;;;;4878461;29;20778;-91
2022/04/18 12:07:46;;;;;;;5.95;3.15;;;18.70;61.30;;;;;;4879148;29;20111;-90
2022/04/18 12:10:24;;;;;;;8.00;4.25;;;18.80;61.50;;;;;;4864214;29;20049;-90
2022/04/18 12:12:50;;;;;;;6.95;3.78;;;18.80;58.50;;;;;;4878270;29;20091;-83
2022/04/18 12:15:16;;;;;;;8.05;4.03;;;18.80;58.00;;;;;;4867896;29;20041;-83
2022/04/18 12:17:42;;;;;;;5.28;3.40;;;18.80;58.80;;;;;;4865165;29;20101;-84
2022/04/18 12:20:23;;;;;;;6.78;4.07;;;18.90;58.80;;;;;;4865899;29;20097;-82
2022/04/18 12:22:52;;;;;;;8.48;3.90;;;18.80;57.80;;;;;;4867910;29;20132;-83
2022/04/18 12:25:20;;;;;;;8.80;4.25;;;18.80;57.20;;;;;;4873215;29;20089;-81
2022/04/18 12:27:46;;;;;;;5.47;3.45;;;18.80;56.00;;;;;;4871520;29;20091;-82
2022/04/18 12:30:12;;;;;;;7.53;3.50;;;18.80;57.70;;;;;;4857555;29;20076;-81
2022/04/18 12:32:38;;;;;;;7.25;3.72;;;18.80;57.80;;;;;;4879452;29;20059;-82
2022/04/18 12:35:05;;;;;;;7.10;3.47;;;18.80;58.90;;;;;;4864386;29;20132;-82
2022/04/18 12:37:31;;;;;;;7.55;3.30;;;18.90;58.10;;;;;;4868011;29;20135;-81
2022/04/18 12:40:11;;;;;;;7.82;3.80;;;18.90;56.30;;;;;;4876704;29;20139;-82
2022/04/18 12:42:37;;;;;;;6.18;3.45;;;18.90;54.30;;;;;;4858203;29;20052;-82
2022/04/18 12:45:04;;;;;;;5.88;3.45;;;18.80;55.00;;;;;;4848563;29;20045;-82
2022/04/18 12:47:32;;;;;;;6.90;3.83;;;18.90;56.00;;;;;;4866280;29;20045;-81
2022/04/18 12:50:08;;;;;;;5.72;3.33;;;18.90;55.20;;;;;;4859014;29;20497;-82
2022/04/18 12:52:35;;;;;;;6.55;3.63;;;18.90;55.20;;;;;;4879914;29;20056;-81
2022/04/18 12:55:05;;;;;;;7.57;3.60;;;18.90;55.70;;;;;;4861751;29;20052;-82
2022/04/18 12:57:31;;;;;;;6.93;3.33;;;18.80;55.30;;;;;;4888784;29;20045;-81
2022/04/18 13:00:14;;;;;;;9.10;3.17;;;18.90;55.90;;;;;;4893041;29;20088;-81
2022/04/18 13:02:41;;;;;;;6.38;3.30;;;18.90;55.50;;;;;;4864630;29;20839;-81